createdAt,value
2023-03-05T00:02:54.009Z,1686
2023-03-05T00:08:24.460Z,1703
2023-03-05T00:13:55.009Z,1712
2023-03-05T00:19:25.597Z,1709
2023-03-05T00:24:56.050Z,1716
2023-03-05T00:30:26.547Z,1724
2023-03-05T00:35:56.069Z,1727
2023-03-05T00:41:26.488Z,1728
2023-03-05T00:46:56.172Z,1715
2023-03-05T00:52:26.474Z,1719
2023-03-05T00:57:56.940Z,1691
2023-03-05T01:03:27.592Z,1657
2023-03-05T01:08:58.015Z,1656
2023-03-05T01:14:28.714Z,1642
2023-03-05T01:19:59.186Z,1689
2023-03-05T01:25:29.635Z,1686
2023-03-05T01:31:00.266Z,1684
2023-03-05T01:36:30.827Z,1714
2023-03-05T01:42:01.286Z,1717
2023-03-05T01:47:31.880Z,1706
2023-03-05T01:53:02.372Z,1698
2023-03-05T01:58:31.841Z,1695
2023-03-05T02:04:02.403Z,1749
2023-03-05T02:09:32.837Z,1775
2023-03-05T02:15:03.401Z,1735
2023-03-05T02:20:34.043Z,1734
2023-03-05T02:26:03.549Z,1844
2023-03-05T02:31:34.061Z,1824
2023-03-05T02:37:04.488Z,1790
2023-03-05T02:42:35.101Z,1775
2023-03-05T02:48:05.545Z,1806
2023-03-05T02:53:36.034Z,1792
2023-03-05T02:59:06.767Z,1778
2023-03-05T03:04:37.198Z,1778
2023-03-05T03:10:07.700Z,1787
2023-03-05T03:15:37.197Z,1788
2023-03-05T03:21:07.652Z,1796
2023-03-05T03:26:37.152Z,1806
2023-03-05T03:32:07.725Z,1814
2023-03-05T03:37:38.093Z,1798
2023-03-05T03:43:08.706Z,1789
2023-03-05T03:48:39.184Z,1785
2023-03-05T03:54:09.637Z,1788
2023-03-05T03:59:40.315Z,1792
2023-03-05T04:05:10.831Z,1803
2023-03-05T04:10:41.296Z,1804
2023-03-05T04:16:11.920Z,1782
2023-03-05T04:21:42.360Z,1771
2023-03-05T04:27:12.817Z,1787
2023-03-05T04:32:42.321Z,1814
2023-03-05T04:38:12.827Z,1814
2023-03-05T04:43:42.303Z,1770
2023-03-05T04:49:12.758Z,1769
2023-03-05T04:54:43.267Z,1772
2023-03-05T05:00:13.049Z,1826
2023-03-05T05:06:49.455Z,1789
2023-03-05T05:12:19.953Z,1741
2023-03-05T05:17:49.421Z,1743
2023-03-05T05:23:19.888Z,1754
2023-03-05T05:28:50.510Z,1751
2023-03-05T05:34:20.953Z,1737
2023-03-05T05:39:51.428Z,1727
2023-03-05T05:46:28.241Z,1741
2023-03-05T05:51:58.591Z,1754
2023-03-05T05:57:28.177Z,1758
2023-03-05T06:02:58.759Z,1495
2023-03-05T06:08:29.167Z,1467
2023-03-05T06:13:58.628Z,1392
2023-03-05T06:19:29.128Z,1346
2023-03-05T06:24:59.732Z,1308
2023-03-05T06:30:30.189Z,1274
2023-03-05T06:36:00.719Z,1239
2023-03-05T06:41:31.239Z,1216
2023-03-05T06:47:01.715Z,1181
2023-03-05T06:52:31.267Z,1165
2023-03-05T06:58:01.674Z,1133
2023-03-05T07:03:32.172Z,1108
2023-03-05T07:09:01.727Z,1089
2023-03-05T07:14:32.144Z,1074
2023-03-05T07:20:02.629Z,1067
2023-03-05T07:25:32.157Z,1040
2023-03-05T07:31:02.694Z,1049
2023-03-05T07:36:33.047Z,944
2023-03-05T07:42:03.735Z,963
2023-03-05T07:47:34.144Z,1003
2023-03-05T07:53:04.622Z,1001
2023-03-05T07:58:34.144Z,1000
2023-03-05T08:04:04.662Z,991
2023-03-05T08:09:34.168Z,971
2023-03-05T08:15:04.676Z,960
2023-03-05T08:20:35.137Z,951
2023-03-05T08:26:04.643Z,947
2023-03-05T08:31:35.196Z,941
2023-03-05T08:37:05.567Z,920
2023-03-05T08:42:35.059Z,915
2023-03-05T08:48:05.577Z,897
2023-03-05T08:53:36.088Z,902
2023-03-05T08:59:05.525Z,892
2023-03-05T09:04:36.031Z,881
2023-03-05T09:10:06.485Z,879
2023-03-05T09:15:35.963Z,872
2023-03-05T09:21:06.475Z,873
2023-03-05T09:26:37.038Z,854
2023-03-05T09:32:07.594Z,789
2023-03-05T09:37:38.113Z,821
2023-03-05T09:43:08.597Z,908
2023-03-05T09:48:39.050Z,897
2023-03-05T09:54:08.551Z,900
2023-03-05T09:59:39.051Z,901
2023-03-05T10:05:09.512Z,923
2023-03-05T10:10:39.134Z,917
2023-03-05T10:16:09.619Z,919
2023-03-05T10:21:40.394Z,916
2023-03-05T10:27:09.653Z,947
2023-03-05T10:32:40.142Z,950
2023-03-05T10:38:09.538Z,960
2023-03-05T10:43:40.032Z,950
2023-03-05T10:49:10.486Z,954
2023-03-05T10:54:41.094Z,969
2023-03-05T11:00:11.610Z,963
2023-03-05T11:05:42.051Z,965
2023-03-05T11:11:12.749Z,972
2023-03-05T11:16:43.262Z,962
2023-03-05T11:22:13.812Z,925
2023-03-05T11:27:44.316Z,954
2023-03-05T11:33:14.788Z,961
2023-03-05T11:38:45.365Z,963
2023-03-05T11:44:15.905Z,956
2023-03-05T11:49:46.363Z,951
2023-03-05T11:55:16.918Z,951
2023-03-05T12:00:47.414Z,946
2023-03-05T12:06:18.049Z,944
2023-03-05T12:11:47.563Z,942
2023-03-05T12:17:17.968Z,940
2023-03-05T12:22:48.593Z,929
2023-03-05T12:28:19.048Z,927
2023-03-05T12:33:49.523Z,919
2023-03-05T12:39:20.145Z,898
2023-03-05T12:44:50.651Z,903
2023-03-05T12:50:21.173Z,877
2023-03-05T12:55:50.691Z,860
2023-03-05T13:01:21.186Z,862
2023-03-05T13:06:51.813Z,851
2023-03-05T13:12:22.374Z,851
2023-03-05T13:17:52.722Z,845
2023-03-05T13:23:23.318Z,829
2023-03-05T13:28:53.962Z,818
2023-03-05T13:34:23.431Z,817
2023-03-05T13:39:53.895Z,811
2023-03-05T13:45:24.635Z,809
2023-03-05T13:50:54.968Z,812
2023-03-05T13:56:25.439Z,808
2023-03-05T14:01:55.941Z,801
2023-03-05T14:07:26.525Z,808
2023-03-05T14:12:57.319Z,793
2023-03-05T14:18:27.617Z,796
2023-03-05T14:23:57.085Z,796
2023-03-05T14:29:27.599Z,780
2023-03-05T14:34:57.119Z,781
2023-03-05T14:40:27.562Z,780
2023-03-05T14:45:58.031Z,777
2023-03-05T14:51:27.553Z,766
2023-03-05T14:56:58.093Z,763
2023-03-05T15:02:28.644Z,753
2023-03-05T15:07:59.286Z,760
2023-03-05T15:13:29.649Z,752
2023-03-05T15:18:59.135Z,743
2023-03-05T15:24:29.648Z,751
2023-03-05T15:30:00.154Z,750
2023-03-05T15:35:30.714Z,746
2023-03-05T15:41:01.864Z,754
2023-03-05T15:46:31.664Z,753
2023-03-05T15:52:02.250Z,750
2023-03-05T15:57:32.739Z,745
2023-03-05T16:03:03.267Z,736
2023-03-05T16:08:33.808Z,729
2023-03-05T16:14:04.331Z,725
2023-03-05T16:19:34.888Z,717
2023-03-05T16:25:05.369Z,718
2023-03-05T16:30:35.872Z,715
2023-03-05T16:36:06.430Z,709
2023-03-05T16:41:36.902Z,713
2023-03-05T16:47:07.603Z,701
2023-03-05T16:52:38.005Z,698
2023-03-05T16:58:08.459Z,683
2023-03-05T17:03:38.005Z,677
2023-03-05T17:09:08.397Z,671
2023-03-05T17:14:38.899Z,667
2023-03-05T17:20:08.400Z,661
2023-03-05T17:25:38.846Z,662
2023-03-05T17:31:08.358Z,652
2023-03-05T17:36:38.814Z,655
2023-03-05T17:42:09.286Z,640
2023-03-05T17:47:38.792Z,640
2023-03-05T17:53:09.263Z,636
2023-03-05T17:58:39.825Z,636
2023-03-05T18:04:10.459Z,611
2023-03-05T18:09:40.900Z,669
2023-03-05T18:15:10.351Z,654
2023-03-05T18:20:40.890Z,650
2023-03-05T18:26:11.407Z,640
2023-03-05T18:31:41.984Z,636
2023-03-05T18:37:12.433Z,638
2023-03-05T18:42:42.919Z,640
2023-03-05T18:48:13.519Z,639
2023-03-05T18:53:43.970Z,638
2023-03-05T18:59:13.492Z,637
2023-03-05T19:04:44.090Z,637
2023-03-05T19:10:14.585Z,633
2023-03-05T19:15:44.164Z,627
2023-03-05T19:21:14.546Z,628
2023-03-05T19:26:45.002Z,631
2023-03-05T19:32:14.565Z,632
2023-03-05T19:37:44.964Z,632
2023-03-05T19:43:14.447Z,636
2023-03-05T19:48:44.943Z,637
2023-03-05T19:54:15.412Z,633
2023-03-05T19:59:46.013Z,640
2023-03-05T20:05:16.515Z,744
2023-03-05T20:10:46.922Z,815
2023-03-05T20:16:17.726Z,869
2023-03-05T20:21:48.123Z,934
2023-03-05T20:27:18.687Z,975
2023-03-05T20:32:48.202Z,1020
2023-03-05T20:38:18.681Z,1052
2023-03-05T20:43:49.150Z,1076
2023-03-05T20:49:18.624Z,1129
2023-03-05T20:54:49.169Z,1166
2023-03-05T21:00:19.587Z,1218
2023-03-05T21:05:50.173Z,1261
2023-03-05T21:11:20.663Z,1301
2023-03-05T21:16:50.204Z,1308
2023-03-05T21:22:20.679Z,1354
2023-03-05T21:27:51.169Z,1383
2023-03-05T21:33:20.676Z,1404
2023-03-05T21:38:51.087Z,1415
2023-03-05T21:44:21.601Z,1436
2023-03-05T21:49:51.074Z,1454
2023-03-05T21:55:21.548Z,1497
2023-03-05T22:00:52.215Z,1515
2023-03-05T22:06:22.624Z,1550
2023-03-05T22:11:53.094Z,1558
2023-03-05T22:17:23.697Z,1571
2023-03-05T22:22:54.157Z,1589
2023-03-05T22:28:24.699Z,1596
2023-03-05T22:33:55.314Z,1614
2023-03-05T22:39:25.789Z,1602
2023-03-05T22:44:56.366Z,1623
2023-03-05T22:50:26.900Z,1642
2023-03-05T22:55:57.390Z,1655
2023-03-05T23:01:28.006Z,1705
2023-03-05T23:06:58.513Z,1686
2023-03-05T23:12:28.984Z,1528
2023-03-05T23:17:58.478Z,1709
2023-03-05T23:24:35.073Z,1767
2023-03-05T23:30:05.500Z,1606
2023-03-05T23:35:36.205Z,1737
2023-03-05T23:41:06.585Z,1791
2023-03-05T23:46:37.239Z,1773
2023-03-05T23:52:07.642Z,1756
2023-03-05T23:57:38.147Z,1742
